Terminal Aerodrome Forecast
Issued by NWS Newport/Morehead City, NC

Home | Current Version | Previous Version | Text Only | Print | Product List | Glossary Off
Versions: 1 2 3 4 5 6 7 8 9 10 11 12 13 14 15 16 17 18 19 20 21 22

889
FTUS42 KMHX 141444 AAB
TAFEWN
TAF AMD
KEWN 141444Z 1415/1512 VRB03KT P6SM BKN015
     FM141600 VRB03KT P6SM VCSH BKN025
     FM141800 VRB04KT P6SM -SHRA VCTS BKN035CB
     FM150000 17005KT P6SM BKN035
     FM150800 00000KT 2SM BR BKN003=

USA.gov is the U.S. government's official web portal to all federal, state and local government web resources and services.